sensor_id;sensor_type;location;lat;lon;timestamp;temperature;humidity
8872;DHT22;4472;52.092;9.820;2023-04-06T00:01:13;0.40;99.90
8872;DHT22;4472;52.092;9.820;2023-04-06T00:04:01;0.50;99.90
8872;DHT22;4472;52.092;9.820;2023-04-06T00:06:48;0.60;99.90
8872;DHT22;4472;52.092;9.820;2023-04-06T00:09:35;0.60;99.90
8872;DHT22;4472;52.092;9.820;2023-04-06T00:12:22;0.60;99.90
8872;DHT22;4472;52.092;9.820;2023-04-06T00:15:11;0.60;99.90
8872;DHT22;4472;52.092;9.820;2023-04-06T00:17:58;0.60;99.90
8872;DHT22;4472;52.092;9.820;2023-04-06T00:20:46;0.60;99.90
8872;DHT22;4472;52.092;9.820;2023-04-06T00:23:33;0.50;99.90
8872;DHT22;4472;52.092;9.820;2023-04-06T00:26:20;0.30;99.90
8872;DHT22;4472;52.092;9.820;2023-04-06T00:29:08;0.50;99.90
8872;DHT22;4472;52.092;9.820;2023-04-06T00:31:56;0.50;99.90
8872;DHT22;4472;52.092;9.820;2023-04-06T00:34:43;0.70;99.90
8872;DHT22;4472;52.092;9.820;2023-04-06T00:37:31;0.40;99.90
8872;DHT22;4472;52.092;9.820;2023-04-06T00:40:18;0.50;99.90
8872;DHT22;4472;52.092;9.820;2023-04-06T00:43:06;0.50;99.90
8872;DHT22;4472;52.092;9.820;2023-04-06T00:45:54;0.40;99.90
8872;DHT22;4472;52.092;9.820;2023-04-06T00:48:43;0.40;99.90
8872;DHT22;4472;52.092;9.820;2023-04-06T00:51:31;0.40;99.90
8872;DHT22;4472;52.092;9.820;2023-04-06T00:54:18;0.40;99.90
8872;DHT22;4472;52.092;9.820;2023-04-06T00:57:05;0.40;99.90
8872;DHT22;4472;52.092;9.820;2023-04-06T00:59:53;0.30;99.90
8872;DHT22;4472;52.092;9.820;2023-04-06T01:02:40;0.30;99.90
8872;DHT22;4472;52.092;9.820;2023-04-06T01:05:29;0.20;99.90
8872;DHT22;4472;52.092;9.820;2023-04-06T01:08:16;0.20;99.90
8872;DHT22;4472;52.092;9.820;2023-04-06T01:11:03;0.30;99.90
8872;DHT22;4472;52.092;9.820;2023-04-06T01:13:50;0.20;99.90
8872;DHT22;4472;52.092;9.820;2023-04-06T01:16:38;0.20;99.90
8872;DHT22;4472;52.092;9.820;2023-04-06T01:19:25;0.20;99.90
8872;DHT22;4472;52.092;9.820;2023-04-06T01:22:15;0.20;99.90
8872;DHT22;4472;52.092;9.820;2023-04-06T01:25:03;0.20;99.90
8872;DHT22;4472;52.092;9.820;2023-04-06T01:27:50;0.10;99.90
8872;DHT22;4472;52.092;9.820;2023-04-06T01:30:37;0.10;99.90
8872;DHT22;4472;52.092;9.820;2023-04-06T01:33:25;0.10;99.90
8872;DHT22;4472;52.092;9.820;2023-04-06T01:36:12;0.10;99.90
8872;DHT22;4472;52.092;9.820;2023-04-06T01:39:01;0.20;99.90
8872;DHT22;4472;52.092;9.820;2023-04-06T01:41:48;0.10;99.90
8872;DHT22;4472;52.092;9.820;2023-04-06T01:44:35;0.10;99.90
8872;DHT22;4472;52.092;9.820;2023-04-06T01:47:23;0.00;99.90
8872;DHT22;4472;52.092;9.820;2023-04-06T01:50:10;0.00;99.90
8872;DHT22;4472;52.092;9.820;2023-04-06T01:52:57;-0.10;99.90
8872;DHT22;4472;52.092;9.820;2023-04-06T01:55:46;0.30;99.90
8872;DHT22;4472;52.092;9.820;2023-04-06T01:58:33;-0.10;99.90
8872;DHT22;4472;52.092;9.820;2023-04-06T02:01:21;-0.10;99.90
8872;DHT22;4472;52.092;9.820;2023-04-06T02:04:08;0.00;99.90
8872;DHT22;4472;52.092;9.820;2023-04-06T02:06:55;0.00;99.90
8872;DHT22;4472;52.092;9.820;2023-04-06T02:09:42;0.00;99.90
8872;DHT22;4472;52.092;9.820;2023-04-06T02:12:31;-0.10;99.90
8872;DHT22;4472;52.092;9.820;2023-04-06T02:15:18;-0.10;99.90
8872;DHT22;4472;52.092;9.820;2023-04-06T02:18:06;0.20;99.90
8872;DHT22;4472;52.092;9.820;2023-04-06T02:23:41;-0.20;99.90
8872;DHT22;4472;52.092;9.820;2023-04-06T02:26:28;-0.20;99.90
8872;DHT22;4472;52.092;9.820;2023-04-06T02:29:17;-0.20;99.90
8872;DHT22;4472;52.092;9.820;2023-04-06T02:32:04;-0.20;99.90
8872;DHT22;4472;52.092;9.820;2023-04-06T02:34:52;-0.20;99.90
8872;DHT22;4472;52.092;9.820;2023-04-06T02:37:39;-0.20;99.90
8872;DHT22;4472;52.092;9.820;2023-04-06T02:40:26;-0.20;99.90
8872;DHT22;4472;52.092;9.820;2023-04-06T02:43:13;-0.20;99.90
8872;DHT22;4472;52.092;9.820;2023-04-06T02:46:02;-0.30;99.90
8872;DHT22;4472;52.092;9.820;2023-04-06T02:48:50;-0.30;99.90
8872;DHT22;4472;52.092;9.820;2023-04-06T02:51:37;-0.30;99.90
8872;DHT22;4472;52.092;9.820;2023-04-06T02:54:24;-0.30;99.90
8872;DHT22;4472;52.092;9.820;2023-04-06T02:57:11;-0.30;99.90
8872;DHT22;4472;52.092;9.820;2023-04-06T02:59:58;-0.40;99.90
8872;DHT22;4472;52.092;9.820;2023-04-06T03:02:47;-0.40;99.90
8872;DHT22;4472;52.092;9.820;2023-04-06T03:05:34;-0.30;99.90
8872;DHT22;4472;52.092;9.820;2023-04-06T03:08:21;-0.30;99.90
8872;DHT22;4472;52.092;9.820;2023-04-06T03:11:09;-0.30;99.90
8872;DHT22;4472;52.092;9.820;2023-04-06T03:13:56;-0.30;99.90
8872;DHT22;4472;52.092;9.820;2023-04-06T03:16:43;-0.30;99.90
8872;DHT22;4472;52.092;9.820;2023-04-06T03:19:32;-0.20;99.90
8872;DHT22;4472;52.092;9.820;2023-04-06T03:22:19;-0.20;99.90
8872;DHT22;4472;52.092;9.820;2023-04-06T03:25:07;0.00;99.90
8872;DHT22;4472;52.092;9.820;2023-04-06T03:27:54;-0.20;99.90
8872;DHT22;4472;52.092;9.820;2023-04-06T03:30:42;0.60;99.90
8872;DHT22;4472;52.092;9.820;2023-04-06T03:33:29;0.20;99.90
8872;DHT22;4472;52.092;9.820;2023-04-06T03:36:18;0.30;99.90
8872;DHT22;4472;52.092;9.820;2023-04-06T03:39:05;0.50;99.90
8872;DHT22;4472;52.092;9.820;2023-04-06T03:41:52;0.60;99.90
8872;DHT22;4472;52.092;9.820;2023-04-06T03:44:39;0.70;99.90
8872;DHT22;4472;52.092;9.820;2023-04-06T03:47:26;0.80;99.90
8872;DHT22;4472;52.092;9.820;2023-04-06T03:50:14;0.80;99.90
8872;DHT22;4472;52.092;9.820;2023-04-06T03:53:02;0.80;99.90
8872;DHT22;4472;52.092;9.820;2023-04-06T03:55:50;0.90;99.90
8872;DHT22;4472;52.092;9.820;2023-04-06T03:58:37;0.80;99.90
8872;DHT22;4472;52.092;9.820;2023-04-06T04:01:24;0.80;99.90
8872;DHT22;4472;52.092;9.820;2023-04-06T04:04:11;0.70;99.90
8872;DHT22;4472;52.092;9.820;2023-04-06T04:06:58;0.70;99.90
8872;DHT22;4472;52.092;9.820;2023-04-06T04:09:47;0.70;99.90
8872;DHT22;4472;52.092;9.820;2023-04-06T04:12:34;0.60;99.90
8872;DHT22;4472;52.092;9.820;2023-04-06T04:15:22;0.50;99.90
8872;DHT22;4472;52.092;9.820;2023-04-06T04:18:09;0.50;99.90
8872;DHT22;4472;52.092;9.820;2023-04-06T04:20:56;0.50;99.90
8872;DHT22;4472;52.092;9.820;2023-04-06T04:23:43;0.40;99.90
8872;DHT22;4472;52.092;9.820;2023-04-06T04:26:32;0.40;99.90
8872;DHT22;4472;52.092;9.820;2023-04-06T04:29:19;0.50;99.90
8872;DHT22;4472;52.092;9.820;2023-04-06T04:32:08;0.40;99.90
8872;DHT22;4472;52.092;9.820;2023-04-06T04:34:55;0.40;99.90
8872;DHT22;4472;52.092;9.820;2023-04-06T04:37:42;0.40;99.90
8872;DHT22;4472;52.092;9.820;2023-04-06T04:40:30;0.50;99.90
8872;DHT22;4472;52.092;9.820;2023-04-06T04:43:18;0.60;99.90
8872;DHT22;4472;52.092;9.820;2023-04-06T04:46:05;0.80;99.90
8872;DHT22;4472;52.092;9.820;2023-04-06T04:48:53;0.90;99.90
8872;DHT22;4472;52.092;9.820;2023-04-06T04:51:40;1.00;99.90
8872;DHT22;4472;52.092;9.820;2023-04-06T04:54:27;1.10;99.80
8872;DHT22;4472;52.092;9.820;2023-04-06T04:57:14;1.20;99.60
8872;DHT22;4472;52.092;9.820;2023-04-06T05:00:03;1.30;99.40
8872;DHT22;4472;52.092;9.820;2023-04-06T05:02:51;1.40;98.90
8872;DHT22;4472;52.092;9.820;2023-04-06T05:05:38;1.40;98.90
8872;DHT22;4472;52.092;9.820;2023-04-06T05:08:26;1.50;98.80
8872;DHT22;4472;52.092;9.820;2023-04-06T05:11:13;1.50;98.60
8872;DHT22;4472;52.092;9.820;2023-04-06T05:14:00;1.50;98.60
8872;DHT22;4472;52.092;9.820;2023-04-06T05:16:49;1.60;98.50
8872;DHT22;4472;52.092;9.820;2023-04-06T05:19:36;1.60;98.50
8872;DHT22;4472;52.092;9.820;2023-04-06T05:22:24;1.70;98.40
8872;DHT22;4472;52.092;9.820;2023-04-06T05:25:11;1.80;98.20
8872;DHT22;4472;52.092;9.820;2023-04-06T05:27:58;1.90;97.60
8872;DHT22;4472;52.092;9.820;2023-04-06T05:30:45;1.90;97.60
8872;DHT22;4472;52.092;9.820;2023-04-06T05:33:34;2.00;97.70
8872;DHT22;4472;52.092;9.820;2023-04-06T05:36:21;2.20;99.30
8872;DHT22;4472;52.092;9.820;2023-04-06T05:39:08;2.70;98.50
8872;DHT22;4472;52.092;9.820;2023-04-06T05:41:56;2.80;96.80
8872;DHT22;4472;52.092;9.820;2023-04-06T05:44:43;2.80;96.30
8872;DHT22;4472;52.092;9.820;2023-04-06T05:47:30;2.70;96.20
8872;DHT22;4472;52.092;9.820;2023-04-06T05:50:19;2.60;96.20
8872;DHT22;4472;52.092;9.820;2023-04-06T05:53:06;2.60;96.30
8872;DHT22;4472;52.092;9.820;2023-04-06T05:55:53;2.60;96.30
8872;DHT22;4472;52.092;9.820;2023-04-06T05:58:41;2.70;96.40
8872;DHT22;4472;52.092;9.820;2023-04-06T06:01:28;2.80;96.50
8872;DHT22;4472;52.092;9.820;2023-04-06T06:04:16;2.90;96.30
8872;DHT22;4472;52.092;9.820;2023-04-06T06:07:04;2.90;95.80
8872;DHT22;4472;52.092;9.820;2023-04-06T06:09:51;3.00;95.40
8872;DHT22;4472;52.092;9.820;2023-04-06T06:12:39;3.20;95.50
8872;DHT22;4472;52.092;9.820;2023-04-06T06:15:26;3.30;95.20
8872;DHT22;4472;52.092;9.820;2023-04-06T06:18:14;3.30;95.40
8872;DHT22;4472;52.092;9.820;2023-04-06T06:21:01;3.40;95.50
8872;DHT22;4472;52.092;9.820;2023-04-06T06:23:49;3.50;95.40
8872;DHT22;4472;52.092;9.820;2023-04-06T06:26:37;3.60;95.10
8872;DHT22;4472;52.092;9.820;2023-04-06T06:29:25;3.70;94.90
8872;DHT22;4472;52.092;9.820;2023-04-06T06:32:12;3.70;94.80
8872;DHT22;4472;52.092;9.820;2023-04-06T06:34:59;3.80;94.90
8872;DHT22;4472;52.092;9.820;2023-04-06T06:37:47;3.90;94.50
8872;DHT22;4472;52.092;9.820;2023-04-06T06:40:35;4.00;94.70
8872;DHT22;4472;52.092;9.820;2023-04-06T06:43:23;4.10;94.40
8872;DHT22;4472;52.092;9.820;2023-04-06T06:46:10;4.30;94.50
8872;DHT22;4472;52.092;9.820;2023-04-06T06:48:58;4.40;94.10
8872;DHT22;4472;52.092;9.820;2023-04-06T06:51:46;4.50;94.10
8872;DHT22;4472;52.092;9.820;2023-04-06T06:54:33;4.70;94.00
8872;DHT22;4472;52.092;9.820;2023-04-06T06:57:21;4.90;94.30
8872;DHT22;4472;52.092;9.820;2023-04-06T07:00:10;5.00;94.00
8872;DHT22;4472;52.092;9.820;2023-04-06T07:02:59;5.20;93.80
8872;DHT22;4472;52.092;9.820;2023-04-06T07:05:46;5.30;93.40
8872;DHT22;4472;52.092;9.820;2023-04-06T07:08:35;5.50;93.10
8872;DHT22;4472;52.092;9.820;2023-04-06T07:11:23;5.60;92.90
8872;DHT22;4472;52.092;9.820;2023-04-06T07:14:11;5.70;92.60
8872;DHT22;4472;52.092;9.820;2023-04-06T07:16:59;5.80;92.50
8872;DHT22;4472;52.092;9.820;2023-04-06T07:19:46;5.90;92.50
8872;DHT22;4472;52.092;9.820;2023-04-06T07:22:33;6.00;92.30
8872;DHT22;4472;52.092;9.820;2023-04-06T07:25:20;6.10;92.60
8872;DHT22;4472;52.092;9.820;2023-04-06T07:28:08;6.20;93.00
8872;DHT22;4472;52.092;9.820;2023-04-06T07:30:56;6.40;92.90
8872;DHT22;4472;52.092;9.820;2023-04-06T07:33:43;6.60;92.10
8872;DHT22;4472;52.092;9.820;2023-04-06T07:36:31;6.70;92.50
8872;DHT22;4472;52.092;9.820;2023-04-06T07:39:18;6.80;92.10
8872;DHT22;4472;52.092;9.820;2023-04-06T07:42:05;6.90;92.00
8872;DHT22;4472;52.092;9.820;2023-04-06T07:44:52;7.10;91.80
8872;DHT22;4472;52.092;9.820;2023-04-06T07:47:41;7.20;91.60
8872;DHT22;4472;52.092;9.820;2023-04-06T07:50:28;7.30;91.90
8872;DHT22;4472;52.092;9.820;2023-04-06T07:53:16;7.40;91.60
8872;DHT22;4472;52.092;9.820;2023-04-06T07:56:03;7.60;92.10
8872;DHT22;4472;52.092;9.820;2023-04-06T07:58:50;7.70;91.60
8872;DHT22;4472;52.092;9.820;2023-04-06T08:01:38;7.80;91.80
8872;DHT22;4472;52.092;9.820;2023-04-06T08:04:27;8.00;90.50
8872;DHT22;4472;52.092;9.820;2023-04-06T08:07:14;8.10;90.40
8872;DHT22;4472;52.092;9.820;2023-04-06T08:10:01;8.30;90.40
8872;DHT22;4472;52.092;9.820;2023-04-06T08:12:48;8.40;89.50
8872;DHT22;4472;52.092;9.820;2023-04-06T08:15:36;8.50;90.50
8872;DHT22;4472;52.092;9.820;2023-04-06T08:18:23;8.60;90.10
8872;DHT22;4472;52.092;9.820;2023-04-06T08:21:12;8.70;89.60
8872;DHT22;4472;52.092;9.820;2023-04-06T08:23:59;8.90;87.90
8872;DHT22;4472;52.092;9.820;2023-04-06T08:26:47;9.00;85.90
8872;DHT22;4472;52.092;9.820;2023-04-06T08:29:34;9.10;86.30
8872;DHT22;4472;52.092;9.820;2023-04-06T08:32:21;9.30;85.50
8872;DHT22;4472;52.092;9.820;2023-04-06T08:35:09;9.30;85.90
8872;DHT22;4472;52.092;9.820;2023-04-06T08:37:58;9.40;85.00
8872;DHT22;4472;52.092;9.820;2023-04-06T08:40:45;9.40;82.20
8872;DHT22;4472;52.092;9.820;2023-04-06T08:43:36;9.60;84.60
8872;DHT22;4472;52.092;9.820;2023-04-06T08:46:30;9.60;80.70
8872;DHT22;4472;52.092;9.820;2023-04-06T08:49:17;9.70;82.60
8872;DHT22;4472;52.092;9.820;2023-04-06T08:52:06;9.80;84.40
8872;DHT22;4472;52.092;9.820;2023-04-06T08:54:55;10.00;80.30
8872;DHT22;4472;52.092;9.820;2023-04-06T08:57:42;10.10;81.50
8872;DHT22;4472;52.092;9.820;2023-04-06T09:00:30;10.20;80.30
8872;DHT22;4472;52.092;9.820;2023-04-06T09:03:18;10.40;78.50
8872;DHT22;4472;52.092;9.820;2023-04-06T09:06:07;10.50;80.00
8872;DHT22;4472;52.092;9.820;2023-04-06T09:08:54;10.60;79.70
8872;DHT22;4472;52.092;9.820;2023-04-06T09:11:46;10.80;80.20
8872;DHT22;4472;52.092;9.820;2023-04-06T09:14:34;10.90;78.90
8872;DHT22;4472;52.092;9.820;2023-04-06T09:17:23;11.00;77.00
8872;DHT22;4472;52.092;9.820;2023-04-06T09:20:11;11.00;75.80
8872;DHT22;4472;52.092;9.820;2023-04-06T09:22:58;11.20;76.00
8872;DHT22;4472;52.092;9.820;2023-04-06T09:25:45;11.40;76.20
8872;DHT22;4472;52.092;9.820;2023-04-06T09:28:43;11.50;73.40
8872;DHT22;4472;52.092;9.820;2023-04-06T09:31:31;11.50;70.10
8872;DHT22;4472;52.092;9.820;2023-04-06T09:34:22;11.60;73.50
8872;DHT22;4472;52.092;9.820;2023-04-06T09:37:13;11.60;74.00
8872;DHT22;4472;52.092;9.820;2023-04-06T09:40:05;11.60;74.40
8872;DHT22;4472;52.092;9.820;2023-04-06T09:42:53;11.60;73.40
8872;DHT22;4472;52.092;9.820;2023-04-06T09:45:44;11.60;73.90
8872;DHT22;4472;52.092;9.820;2023-04-06T09:48:34;11.70;73.50
8872;DHT22;4472;52.092;9.820;2023-04-06T09:51:22;12.30;74.20
8872;DHT22;4472;52.092;9.820;2023-04-06T09:54:11;11.80;70.30
8872;DHT22;4472;52.092;9.820;2023-04-06T09:57:07;11.80;72.90
8872;DHT22;4472;52.092;9.820;2023-04-06T10:00:02;11.90;72.90
8872;DHT22;4472;52.092;9.820;2023-04-06T10:02:59;12.00;73.90
8872;DHT22;4472;52.092;9.820;2023-04-06T10:05:54;12.00;71.80
8872;DHT22;4472;52.092;9.820;2023-04-06T10:08:45;12.00;71.90
8872;DHT22;4472;52.092;9.820;2023-04-06T10:11:34;12.10;71.80
8872;DHT22;4472;52.092;9.820;2023-04-06T10:14:22;12.20;72.60
8872;DHT22;4472;52.092;9.820;2023-04-06T10:17:09;12.10;73.00
8872;DHT22;4472;52.092;9.820;2023-04-06T10:20:02;12.10;72.40
8872;DHT22;4472;52.092;9.820;2023-04-06T10:22:55;12.10;70.70
8872;DHT22;4472;52.092;9.820;2023-04-06T10:25:52;12.10;72.30
8872;DHT22;4472;52.092;9.820;2023-04-06T10:28:42;12.20;71.80
8872;DHT22;4472;52.092;9.820;2023-04-06T10:31:29;12.20;68.00
8872;DHT22;4472;52.092;9.820;2023-04-06T10:34:34;12.40;70.10
8872;DHT22;4472;52.092;9.820;2023-04-06T10:37:21;12.50;70.90
8872;DHT22;4472;52.092;9.820;2023-04-06T10:40:18;12.50;70.20
8872;DHT22;4472;52.092;9.820;2023-04-06T10:43:10;12.50;70.20
8872;DHT22;4472;52.092;9.820;2023-04-06T10:45:59;12.50;69.30
8872;DHT22;4472;52.092;9.820;2023-04-06T10:48:47;12.40;70.80
8872;DHT22;4472;52.092;9.820;2023-04-06T10:51:38;12.90;68.00
8872;DHT22;4472;52.092;9.820;2023-04-06T10:54:26;12.40;68.00
8872;DHT22;4472;52.092;9.820;2023-04-06T10:57:13;12.40;70.40
8872;DHT22;4472;52.092;9.820;2023-04-06T11:00:01;12.40;70.00
8872;DHT22;4472;52.092;9.820;2023-04-06T11:02:48;12.40;69.50
8872;DHT22;4472;52.092;9.820;2023-04-06T11:05:35;12.40;67.80
8872;DHT22;4472;52.092;9.820;2023-04-06T11:08:25;12.50;68.00
8872;DHT22;4472;52.092;9.820;2023-04-06T11:11:13;12.50;67.70
8872;DHT22;4472;52.092;9.820;2023-04-06T11:14:01;12.50;68.80
8872;DHT22;4472;52.092;9.820;2023-04-06T11:16:49;12.60;69.10
8872;DHT22;4472;52.092;9.820;2023-04-06T11:19:36;12.70;68.40
8872;DHT22;4472;52.092;9.820;2023-04-06T11:22:24;12.70;67.90
8872;DHT22;4472;52.092;9.820;2023-04-06T11:25:13;12.80;69.30
8872;DHT22;4472;52.092;9.820;2023-04-06T11:28:02;12.80;67.60
8872;DHT22;4472;52.092;9.820;2023-04-06T11:30:49;12.90;68.20
8872;DHT22;4472;52.092;9.820;2023-04-06T11:33:37;12.90;67.20
8872;DHT22;4472;52.092;9.820;2023-04-06T11:36:27;12.80;68.80
8872;DHT22;4472;52.092;9.820;2023-04-06T11:39:19;12.90;69.90
8872;DHT22;4472;52.092;9.820;2023-04-06T11:42:08;12.90;68.00
8872;DHT22;4472;52.092;9.820;2023-04-06T11:44:57;13.00;68.80
8872;DHT22;4472;52.092;9.820;2023-04-06T11:47:44;13.00;68.20
8872;DHT22;4472;52.092;9.820;2023-04-06T11:50:32;13.10;68.60
8872;DHT22;4472;52.092;9.820;2023-04-06T11:53:20;13.00;65.50
8872;DHT22;4472;52.092;9.820;2023-04-06T11:56:08;13.00;68.50
8872;DHT22;4472;52.092;9.820;2023-04-06T11:58:57;12.90;67.80
8872;DHT22;4472;52.092;9.820;2023-04-06T12:01:45;12.90;66.70
8872;DHT22;4472;52.092;9.820;2023-04-06T12:04:33;12.90;67.50
8872;DHT22;4472;52.092;9.820;2023-04-06T12:07:20;13.00;69.50
8872;DHT22;4472;52.092;9.820;2023-04-06T12:10:08;13.00;67.90
8872;DHT22;4472;52.092;9.820;2023-04-06T12:12:55;13.00;65.70
8872;DHT22;4472;52.092;9.820;2023-04-06T12:15:44;13.00;67.40
8872;DHT22;4472;52.092;9.820;2023-04-06T12:18:31;13.00;67.70
8872;DHT22;4472;52.092;9.820;2023-04-06T12:21:18;13.00;68.30
8872;DHT22;4472;52.092;9.820;2023-04-06T12:24:06;13.00;67.30
8872;DHT22;4472;52.092;9.820;2023-04-06T12:26:54;13.00;65.40
8872;DHT22;4472;52.092;9.820;2023-04-06T12:29:42;13.00;66.70
8872;DHT22;4472;52.092;9.820;2023-04-06T12:32:30;13.00;66.00
8872;DHT22;4472;52.092;9.820;2023-04-06T12:35:18;13.00;67.60
8872;DHT22;4472;52.092;9.820;2023-04-06T12:38:05;13.10;64.90
8872;DHT22;4472;52.092;9.820;2023-04-06T12:40:52;13.10;63.90
8872;DHT22;4472;52.092;9.820;2023-04-06T12:43:40;13.20;65.30
8872;DHT22;4472;52.092;9.820;2023-04-06T12:46:27;13.20;66.80
8872;DHT22;4472;52.092;9.820;2023-04-06T12:49:17;13.30;68.90
8872;DHT22;4472;52.092;9.820;2023-04-06T12:52:05;13.30;65.80
8872;DHT22;4472;52.092;9.820;2023-04-06T12:54:52;13.40;65.70
8872;DHT22;4472;52.092;9.820;2023-04-06T12:57:40;13.40;66.60
8872;DHT22;4472;52.092;9.820;2023-04-06T13:00:27;13.40;63.00
8872;DHT22;4472;52.092;9.820;2023-04-06T13:03:14;13.30;64.30
8872;DHT22;4472;52.092;9.820;2023-04-06T13:06:03;13.30;63.00
8872;DHT22;4472;52.092;9.820;2023-04-06T13:08:50;13.30;64.40
8872;DHT22;4472;52.092;9.820;2023-04-06T13:11:37;13.40;65.50
8872;DHT22;4472;52.092;9.820;2023-04-06T13:14:27;13.40;64.80
8872;DHT22;4472;52.092;9.820;2023-04-06T13:17:14;13.40;65.80
8872;DHT22;4472;52.092;9.820;2023-04-06T13:20:02;13.40;64.70
8872;DHT22;4472;52.092;9.820;2023-04-06T13:22:53;13.40;63.50
8872;DHT22;4472;52.092;9.820;2023-04-06T13:25:40;13.30;63.80
8872;DHT22;4472;52.092;9.820;2023-04-06T13:28:28;13.30;62.10
8872;DHT22;4472;52.092;9.820;2023-04-06T13:31:15;13.30;64.40
8872;DHT22;4472;52.092;9.820;2023-04-06T13:34:02;13.40;64.70
8872;DHT22;4472;52.092;9.820;2023-04-06T13:36:50;13.40;64.00
8872;DHT22;4472;52.092;9.820;2023-04-06T13:39:39;13.50;64.20
8872;DHT22;4472;52.092;9.820;2023-04-06T13:42:27;13.50;64.00
8872;DHT22;4472;52.092;9.820;2023-04-06T13:45:14;13.50;64.80
8872;DHT22;4472;52.092;9.820;2023-04-06T13:48:02;13.50;62.70
8872;DHT22;4472;52.092;9.820;2023-04-06T13:50:49;13.70;64.10
8872;DHT22;4472;52.092;9.820;2023-04-06T13:53:36;13.50;63.70
8872;DHT22;4472;52.092;9.820;2023-04-06T13:56:24;13.70;64.20
8872;DHT22;4472;52.092;9.820;2023-04-06T13:59:12;13.40;63.60
8872;DHT22;4472;52.092;9.820;2023-04-06T14:01:59;13.50;63.70
8872;DHT22;4472;52.092;9.820;2023-04-06T14:04:46;13.40;63.80
8872;DHT22;4472;52.092;9.820;2023-04-06T14:07:33;13.50;62.50
8872;DHT22;4472;52.092;9.820;2023-04-06T14:10:20;13.60;62.90
8872;DHT22;4472;52.092;9.820;2023-04-06T14:13:10;13.60;64.90
8872;DHT22;4472;52.092;9.820;2023-04-06T14:15:58;13.60;63.70
8872;DHT22;4472;52.092;9.820;2023-04-06T14:18:45;13.70;64.90
8872;DHT22;4472;52.092;9.820;2023-04-06T14:21:32;13.80;63.30
8872;DHT22;4472;52.092;9.820;2023-04-06T14:24:20;13.80;63.20
8872;DHT22;4472;52.092;9.820;2023-04-06T14:27:07;13.70;63.90
8872;DHT22;4472;52.092;9.820;2023-04-06T14:29:55;13.80;64.20
8872;DHT22;4472;52.092;9.820;2023-04-06T14:32:43;13.80;63.20
8872;DHT22;4472;52.092;9.820;2023-04-06T14:35:30;13.80;64.30
8872;DHT22;4472;52.092;9.820;2023-04-06T14:38:18;13.70;63.40
8872;DHT22;4472;52.092;9.820;2023-04-06T14:41:05;13.70;63.70
8872;DHT22;4472;52.092;9.820;2023-04-06T14:43:52;13.60;63.20
8872;DHT22;4472;52.092;9.820;2023-04-06T14:46:40;13.60;61.10
8872;DHT22;4472;52.092;9.820;2023-04-06T14:49:28;13.60;61.90
8872;DHT22;4472;52.092;9.820;2023-04-06T14:52:15;13.60;60.80
8872;DHT22;4472;52.092;9.820;2023-04-06T14:55:02;13.60;61.20
8872;DHT22;4472;52.092;9.820;2023-04-06T14:57:50;13.60;61.20
8872;DHT22;4472;52.092;9.820;2023-04-06T15:00:38;13.70;62.00
8872;DHT22;4472;52.092;9.820;2023-04-06T15:03:26;13.60;61.50
8872;DHT22;4472;52.092;9.820;2023-04-06T15:06:14;13.60;61.60
8872;DHT22;4472;52.092;9.820;2023-04-06T15:09:02;13.60;63.00
8872;DHT22;4472;52.092;9.820;2023-04-06T15:11:49;13.70;64.30
8872;DHT22;4472;52.092;9.820;2023-04-06T15:14:36;13.70;62.80
8872;DHT22;4472;52.092;9.820;2023-04-06T15:17:23;13.60;63.00
8872;DHT22;4472;52.092;9.820;2023-04-06T15:20:13;13.60;61.30
8872;DHT22;4472;52.092;9.820;2023-04-06T15:23:01;13.60;61.40
8872;DHT22;4472;52.092;9.820;2023-04-06T15:25:48;13.60;62.60
8872;DHT22;4472;52.092;9.820;2023-04-06T15:28:36;13.60;62.00
8872;DHT22;4472;52.092;9.820;2023-04-06T15:31:23;13.50;61.20
8872;DHT22;4472;52.092;9.820;2023-04-06T15:34:10;13.50;61.10
8872;DHT22;4472;52.092;9.820;2023-04-06T15:37:00;13.40;61.40
8872;DHT22;4472;52.092;9.820;2023-04-06T15:39:49;13.40;61.70
8872;DHT22;4472;52.092;9.820;2023-04-06T15:42:39;13.40;61.90
8872;DHT22;4472;52.092;9.820;2023-04-06T15:45:28;13.40;60.50
8872;DHT22;4472;52.092;9.820;2023-04-06T15:48:15;13.40;61.60
8872;DHT22;4472;52.092;9.820;2023-04-06T15:51:04;13.30;60.50
8872;DHT22;4472;52.092;9.820;2023-04-06T15:53:52;13.30;62.40
8872;DHT22;4472;52.092;9.820;2023-04-06T15:56:39;13.30;62.70
8872;DHT22;4472;52.092;9.820;2023-04-06T15:59:26;13.30;60.70
8872;DHT22;4472;52.092;9.820;2023-04-06T16:02:13;13.30;62.40
8872;DHT22;4472;52.092;9.820;2023-04-06T16:05:01;13.40;63.40
8872;DHT22;4472;52.092;9.820;2023-04-06T16:07:48;13.30;63.40
8872;DHT22;4472;52.092;9.820;2023-04-06T16:10:37;13.30;62.60
8872;DHT22;4472;52.092;9.820;2023-04-06T16:13:24;13.30;64.70
8872;DHT22;4472;52.092;9.820;2023-04-06T16:16:11;13.20;64.10
8872;DHT22;4472;52.092;9.820;2023-04-06T16:22:40;13.00;65.00
8872;DHT22;4472;52.092;9.820;2023-04-06T16:25:29;13.00;64.00
8872;DHT22;4472;52.092;9.820;2023-04-06T16:28:17;12.90;63.80
8872;DHT22;4472;52.092;9.820;2023-04-06T16:31:04;12.90;64.00
8872;DHT22;4472;52.092;9.820;2023-04-06T16:33:55;12.90;64.30
8872;DHT22;4472;52.092;9.820;2023-04-06T16:36:42;12.90;65.20
8872;DHT22;4472;52.092;9.820;2023-04-06T16:39:29;12.80;64.80
8872;DHT22;4472;52.092;9.820;2023-04-06T16:42:16;12.70;65.30
8872;DHT22;4472;52.092;9.820;2023-04-06T16:45:07;12.60;65.00
8872;DHT22;4472;52.092;9.820;2023-04-06T16:47:54;12.50;64.90
8872;DHT22;4472;52.092;9.820;2023-04-06T16:50:41;12.40;63.90
8872;DHT22;4472;52.092;9.820;2023-04-06T16:53:28;12.30;64.00
8872;DHT22;4472;52.092;9.820;2023-04-06T16:56:16;12.20;64.60
8872;DHT22;4472;52.092;9.820;2023-04-06T16:59:06;12.10;64.10
8872;DHT22;4472;52.092;9.820;2023-04-06T17:01:55;12.00;64.10
8872;DHT22;4472;52.092;9.820;2023-04-06T17:04:42;11.90;64.10
8872;DHT22;4472;52.092;9.820;2023-04-06T17:07:29;11.80;63.90
8872;DHT22;4472;52.092;9.820;2023-04-06T17:10:17;11.70;63.70
8872;DHT22;4472;52.092;9.820;2023-04-06T17:13:04;11.60;64.00
8872;DHT22;4472;52.092;9.820;2023-04-06T17:15:51;11.50;65.10
8872;DHT22;4472;52.092;9.820;2023-04-06T17:18:40;11.40;65.10
8872;DHT22;4472;52.092;9.820;2023-04-06T17:21:27;11.40;65.40
8872;DHT22;4472;52.092;9.820;2023-04-06T17:24:14;11.30;65.90
8872;DHT22;4472;52.092;9.820;2023-04-06T17:27:01;11.10;66.70
8872;DHT22;4472;52.092;9.820;2023-04-06T17:29:48;11.10;66.50
8872;DHT22;4472;52.092;9.820;2023-04-06T17:32:36;10.90;67.40
8872;DHT22;4472;52.092;9.820;2023-04-06T17:35:25;10.80;68.40
8872;DHT22;4472;52.092;9.820;2023-04-06T17:38:12;10.70;69.40
8872;DHT22;4472;52.092;9.820;2023-04-06T17:40:59;10.50;70.00
8872;DHT22;4472;52.092;9.820;2023-04-06T17:43:49;10.40;70.50
8872;DHT22;4472;52.092;9.820;2023-04-06T17:46:37;10.20;70.90
8872;DHT22;4472;52.092;9.820;2023-04-06T17:49:24;10.10;72.10
8872;DHT22;4472;52.092;9.820;2023-04-06T17:52:12;10.00;72.70
8872;DHT22;4472;52.092;9.820;2023-04-06T17:54:59;9.80;74.70
8872;DHT22;4472;52.092;9.820;2023-04-06T17:57:47;9.70;74.90
8872;DHT22;4472;52.092;9.820;2023-04-06T18:00:34;9.50;75.70
8872;DHT22;4472;52.092;9.820;2023-04-06T18:03:21;9.40;76.80
8872;DHT22;4472;52.092;9.820;2023-04-06T18:06:09;9.30;78.10
8872;DHT22;4472;52.092;9.820;2023-04-06T18:08:58;9.10;79.00
8872;DHT22;4472;52.092;9.820;2023-04-06T18:11:45;9.00;80.00
8872;DHT22;4472;52.092;9.820;2023-04-06T18:14:32;8.90;81.20
8872;DHT22;4472;52.092;9.820;2023-04-06T18:17:20;8.70;82.10
8872;DHT22;4472;52.092;9.820;2023-04-06T18:20:08;8.60;83.50
8872;DHT22;4472;52.092;9.820;2023-04-06T18:22:55;8.40;84.70
8872;DHT22;4472;52.092;9.820;2023-04-06T18:25:44;8.40;85.70
8872;DHT22;4472;52.092;9.820;2023-04-06T18:28:31;8.20;86.60
8872;DHT22;4472;52.092;9.820;2023-04-06T18:31:19;8.10;87.20